createdAt,value
2018-06-23T00:00:23.701Z,11.02
2018-06-23T00:01:23.693Z,11.10
2018-06-23T00:02:23.681Z,10.97
2018-06-23T00:03:23.672Z,10.89
2018-06-23T00:04:23.663Z,10.81
2018-06-23T00:05:23.654Z,10.94
2018-06-23T00:06:23.644Z,10.87
2018-06-23T00:07:23.635Z,10.86
2018-06-23T00:08:23.626Z,10.93
2018-06-23T00:09:23.616Z,10.93
2018-06-23T00:10:23.607Z,10.92
2018-06-23T00:11:23.597Z,10.86
2018-06-23T00:12:23.588Z,10.96
2018-06-23T00:13:23.578Z,10.94
2018-06-23T00:14:23.568Z,10.89
2018-06-23T00:15:23.559Z,10.89
2018-06-23T00:16:23.550Z,10.84
2018-06-23T00:17:23.541Z,10.84
2018-06-23T00:18:23.531Z,10.93
2018-06-23T00:19:23.522Z,10.93
2018-06-23T00:20:23.512Z,10.89
2018-06-23T00:21:23.503Z,10.92
2018-06-23T00:22:23.498Z,10.89
2018-06-23T00:23:23.483Z,10.78
2018-06-23T00:24:23.475Z,10.84
2018-06-23T00:25:23.465Z,10.86
2018-06-23T00:26:23.455Z,10.82
2018-06-23T00:27:23.450Z,10.82
2018-06-23T00:28:23.437Z,10.76
2018-06-23T00:29:23.428Z,10.76
2018-06-23T00:30:23.417Z,10.68
2018-06-23T00:31:23.407Z,10.54
2018-06-23T00:32:23.398Z,10.74
2018-06-23T00:33:23.388Z,10.57
2018-06-23T00:34:23.379Z,10.69
2018-06-23T00:35:23.371Z,10.60
2018-06-23T00:36:23.360Z,10.68
2018-06-23T00:37:23.351Z,10.64
2018-06-23T00:38:23.341Z,10.69
2018-06-23T00:39:23.335Z,10.67
2018-06-23T00:40:23.328Z,10.60
2018-06-23T00:41:23.312Z,10.68
2018-06-23T00:42:23.302Z,10.64
2018-06-23T00:43:23.297Z,10.59
2018-06-23T00:44:23.283Z,10.64
2018-06-23T00:45:23.275Z,10.72
2018-06-23T00:46:23.265Z,10.64
2018-06-23T00:47:23.255Z,10.69
2018-06-23T00:48:23.249Z,10.67
2018-06-23T00:49:23.240Z,10.69
2018-06-23T00:50:23.227Z,10.67
2018-06-23T00:51:23.217Z,10.60
2018-06-23T00:52:23.207Z,10.60
2018-06-23T00:53:23.198Z,10.67
2018-06-23T00:54:23.193Z,10.60
2018-06-23T00:55:23.179Z,10.68
2018-06-23T00:56:23.169Z,10.68
2018-06-23T00:57:23.160Z,10.63
2018-06-23T00:58:23.150Z,10.57
2018-06-23T00:59:23.144Z,10.63
2018-06-23T01:00:23.131Z,10.63
2018-06-23T01:01:23.122Z,10.57
2018-06-23T01:02:23.116Z,10.68
2018-06-23T01:03:23.103Z,10.59
2018-06-23T01:04:23.093Z,10.54
2018-06-23T01:05:23.083Z,10.56
2018-06-23T01:06:23.073Z,10.49
2018-06-23T01:07:23.065Z,10.42
2018-06-23T01:08:23.054Z,10.31
2018-06-23T01:09:23.046Z,10.38
2018-06-23T01:10:23.035Z,10.48
2018-06-23T01:11:23.026Z,10.42
2018-06-23T01:12:23.016Z,10.38
2018-06-23T01:13:23.007Z,10.44
2018-06-23T01:14:22.998Z,10.40
2018-06-23T01:15:22.987Z,10.46
2018-06-23T01:16:22.978Z,10.46
2018-06-23T01:17:22.970Z,10.41
2018-06-23T01:18:22.958Z,10.49
2018-06-23T01:19:22.948Z,10.41
2018-06-23T01:20:22.942Z,10.41
2018-06-23T01:21:22.929Z,10.35
2018-06-23T01:22:22.919Z,10.37
2018-06-23T01:23:22.909Z,10.34
2018-06-23T01:24:22.900Z,10.19
2018-06-23T01:25:22.891Z,10.23
2018-06-23T01:26:22.881Z,10.23
2018-06-23T01:27:22.871Z,10.26
2018-06-23T01:28:22.862Z,10.20
2018-06-23T01:29:22.857Z,10.16
2018-06-23T01:30:22.842Z,10.25
2018-06-23T01:31:22.832Z,10.16
2018-06-23T01:32:22.822Z,10.19
2018-06-23T01:33:22.818Z,10.13
2018-06-23T01:34:22.803Z,10.25
2018-06-23T01:35:22.793Z,10.22
2018-06-23T01:36:22.784Z,10.23
2018-06-23T01:37:22.775Z,10.15
2018-06-23T01:38:22.764Z,10.22
2018-06-23T01:39:22.754Z,10.16
2018-06-23T01:40:22.746Z,10.05
2018-06-23T01:41:22.736Z,9.98
2018-06-23T01:42:22.726Z,9.98
2018-06-23T01:43:22.716Z,10.16
2018-06-23T01:44:22.706Z,10.10
2018-06-23T01:45:22.697Z,10.15
2018-06-23T01:46:22.687Z,10.05
2018-06-23T01:47:22.677Z,10.01
2018-06-23T01:48:22.667Z,10.02
2018-06-23T01:49:22.658Z,9.98
2018-06-23T01:50:22.647Z,9.98
2018-06-23T01:51:22.638Z,10.01
2018-06-23T01:52:22.630Z,9.89
2018-06-23T01:53:22.619Z,9.84
2018-06-23T01:54:22.608Z,9.87
2018-06-23T01:55:22.599Z,9.73
2018-06-23T01:56:22.595Z,9.79
2018-06-23T01:57:22.583Z,9.76
2018-06-23T01:58:22.569Z,9.77
2018-06-23T01:59:22.560Z,9.77
2018-06-23T02:00:22.555Z,9.87
2018-06-23T02:01:22.541Z,9.84
2018-06-23T02:02:22.531Z,9.87
2018-06-23T02:03:22.521Z,9.89
2018-06-23T02:04:22.511Z,9.99
2018-06-23T02:05:22.502Z,9.99
2018-06-23T02:06:22.491Z,9.95
2018-06-23T02:07:22.481Z,10.04
2018-06-23T02:08:22.472Z,9.87
2018-06-23T02:09:22.465Z,9.94
2018-06-23T02:10:22.458Z,9.91
2018-06-23T02:11:22.442Z,9.87
2018-06-23T02:12:22.433Z,9.92
2018-06-23T02:13:22.423Z,9.91
2018-06-23T02:14:22.414Z,9.92
2018-06-23T02:15:22.404Z,9.86
2018-06-23T02:16:22.394Z,9.87
2018-06-23T02:17:22.384Z,9.80
2018-06-23T02:18:22.375Z,9.74
2018-06-23T02:19:22.364Z,9.87
2018-06-23T02:20:22.355Z,9.84
2018-06-23T02:21:22.346Z,9.86
2018-06-23T02:22:22.336Z,9.87
2018-06-23T02:23:22.330Z,9.97
2018-06-23T02:24:22.317Z,9.83
2018-06-23T02:25:22.306Z,9.87
2018-06-23T02:26:22.296Z,9.95
2018-06-23T02:27:22.289Z,9.87
2018-06-23T02:28:22.277Z,9.83
2018-06-23T02:29:22.267Z,9.89
2018-06-23T02:30:22.258Z,9.89
2018-06-23T02:31:22.247Z,9.89
2018-06-23T02:32:22.238Z,9.91
2018-06-23T02:33:22.228Z,9.86
2018-06-23T02:34:22.218Z,9.84
2018-06-23T02:35:22.210Z,9.89
2018-06-23T02:36:22.202Z,9.91
2018-06-23T02:37:22.195Z,9.94
2018-06-23T02:38:22.181Z,9.91
2018-06-23T02:39:22.169Z,9.92
2018-06-23T02:40:22.159Z,9.86
2018-06-23T02:41:22.151Z,9.82
2018-06-23T02:42:22.142Z,9.83
2018-06-23T02:43:22.130Z,9.77
2018-06-23T02:44:22.121Z,9.80
2018-06-23T02:45:22.111Z,9.80
2018-06-23T02:46:22.101Z,9.79
2018-06-23T02:47:22.093Z,9.79
2018-06-23T02:48:22.085Z,9.82
2018-06-23T02:49:22.071Z,9.84
2018-06-23T02:50:22.080Z,9.84
2018-06-23T02:51:22.051Z,9.82
2018-06-23T02:52:22.045Z,9.80
2018-06-23T02:53:22.032Z,9.77
2018-06-23T02:54:22.023Z,9.72
2018-06-23T02:55:22.012Z,9.66
2018-06-23T02:56:22.009Z,9.64
2018-06-23T02:57:21.993Z,9.69
2018-06-23T02:58:21.983Z,9.66
2018-06-23T02:59:21.973Z,9.66
2018-06-23T03:00:21.963Z,9.64
2018-06-23T03:01:21.954Z,9.59
2018-06-23T03:02:21.943Z,9.62
2018-06-23T03:03:21.938Z,9.65
2018-06-23T03:04:21.927Z,9.64
2018-06-23T03:05:21.914Z,9.68
2018-06-23T03:06:21.904Z,9.74
2018-06-23T03:07:21.899Z,9.74
2018-06-23T03:08:21.884Z,9.74
2018-06-23T03:09:21.875Z,9.77
2018-06-23T03:10:21.864Z,9.74
2018-06-23T03:11:21.855Z,9.77
2018-06-23T03:12:21.848Z,9.61
2018-06-23T03:13:21.836Z,9.62
2018-06-23T03:14:21.825Z,9.48
2018-06-23T03:15:21.815Z,9.51
2018-06-23T03:16:21.809Z,9.46
2018-06-23T03:17:21.797Z,9.50
2018-06-23T03:18:21.786Z,9.40
2018-06-23T03:19:21.776Z,9.39
2018-06-23T03:20:21.767Z,9.36
2018-06-23T03:21:21.759Z,9.39
2018-06-23T03:22:21.750Z,9.29
2018-06-23T03:23:21.740Z,9.34
2018-06-23T03:24:21.735Z,9.34
2018-06-23T03:25:21.718Z,9.26
2018-06-23T03:26:21.707Z,9.23
2018-06-23T03:27:21.900Z,9.18
2018-06-23T03:28:21.687Z,9.16
2018-06-23T03:29:21.680Z,9.11
2018-06-23T03:30:21.671Z,9.10
2018-06-23T03:31:21.673Z,9.19
2018-06-23T03:32:21.653Z,9.23
2018-06-23T03:33:21.642Z,9.25
2018-06-23T03:34:21.630Z,9.21
2018-06-23T03:35:21.619Z,9.25
2018-06-23T03:36:21.609Z,9.26
2018-06-23T03:37:21.600Z,9.21
2018-06-23T03:38:21.592Z,9.21
2018-06-23T03:39:21.582Z,9.18
2018-06-23T03:40:21.572Z,9.11
2018-06-23T03:41:21.561Z,9.13
2018-06-23T03:42:21.550Z,9.02
2018-06-23T03:43:21.544Z,9.04
2018-06-23T03:44:21.735Z,8.94
2018-06-23T03:45:21.525Z,8.89
2018-06-23T03:46:21.510Z,8.97
2018-06-23T03:47:21.501Z,9.02
2018-06-23T03:48:21.496Z,8.99
2018-06-23T03:49:21.485Z,8.97
2018-06-23T03:50:21.470Z,8.94
2018-06-23T03:51:21.461Z,8.91
2018-06-23T03:52:21.452Z,8.91
2018-06-23T03:53:21.442Z,8.88
2018-06-23T03:54:21.431Z,8.95
2018-06-23T03:55:21.422Z,8.87
2018-06-23T03:56:21.416Z,8.94
2018-06-23T03:57:21.404Z,8.87
2018-06-23T03:58:21.395Z,8.89
2018-06-23T03:59:21.382Z,8.94
2018-06-23T04:00:21.372Z,8.92
2018-06-23T04:01:21.363Z,8.95
2018-06-23T04:02:21.352Z,8.97
2018-06-23T04:03:21.346Z,9.03
2018-06-23T04:04:21.334Z,8.95
2018-06-23T04:05:21.323Z,9.04
2018-06-23T04:07:21.303Z,8.99
2018-06-23T04:08:21.293Z,9.04
2018-06-23T04:09:21.283Z,8.99
2018-06-23T04:10:21.273Z,8.95
2018-06-23T04:11:21.319Z,9.02
2018-06-23T04:12:21.254Z,8.99
2018-06-23T04:13:21.244Z,8.99
2018-06-23T04:14:21.233Z,9.06
2018-06-23T04:15:21.227Z,9.04
2018-06-23T04:16:21.214Z,9.10
2018-06-23T04:17:21.205Z,9.10
2018-06-23T04:18:21.205Z,9.10
2018-06-23T04:19:21.184Z,9.18
2018-06-23T04:20:21.175Z,9.21
2018-06-23T04:21:21.165Z,9.21
2018-06-23T04:22:21.159Z,9.25
2018-06-23T04:23:21.147Z,9.26
2018-06-23T04:24:21.136Z,9.29
2018-06-23T04:25:21.127Z,9.32
2018-06-23T04:26:21.116Z,9.37
2018-06-23T04:27:21.106Z,9.43
2018-06-23T04:28:21.097Z,9.46
2018-06-23T04:29:21.200Z,9.59
2018-06-23T04:30:21.077Z,9.68
2018-06-23T04:31:21.068Z,9.77
2018-06-23T04:32:21.059Z,9.84
2018-06-23T04:33:21.049Z,9.77
2018-06-23T04:34:21.039Z,9.84
2018-06-23T04:35:21.037Z,9.87
2018-06-23T04:37:21.015Z,9.76
2018-06-23T04:38:21.006Z,9.79
2018-06-23T04:39:20.992Z,9.86
2018-06-23T04:40:20.982Z,9.92
2018-06-23T04:41:20.973Z,9.91
2018-06-23T04:42:20.963Z,9.94
2018-06-23T04:43:20.954Z,9.91
2018-06-23T04:44:20.944Z,9.92
2018-06-23T04:45:20.935Z,9.89
2018-06-23T04:46:20.928Z,9.87
2018-06-23T04:47:20.916Z,9.89
2018-06-23T04:48:20.906Z,9.98
2018-06-23T04:49:20.897Z,9.97
2018-06-23T04:50:20.887Z,9.91
2018-06-23T04:51:20.878Z,10.02
2018-06-23T04:52:20.869Z,10.02
2018-06-23T04:53:21.068Z,10.07
2018-06-23T04:54:20.850Z,10.02
2018-06-23T04:55:20.841Z,10.13
2018-06-23T04:56:20.838Z,10.12
2018-06-23T04:57:20.826Z,10.16
2018-06-23T04:58:20.812Z,10.10
2018-06-23T04:59:20.803Z,10.20
2018-06-23T05:00:20.816Z,10.26
2018-06-23T05:01:20.785Z,10.26
2018-06-23T05:02:20.775Z,10.30
2018-06-23T05:03:20.766Z,10.38
2018-06-23T05:04:20.761Z,10.44
2018-06-23T05:05:20.748Z,10.44
2018-06-23T05:06:20.742Z,10.59
2018-06-23T05:08:20.924Z,10.61
2018-06-23T05:09:20.719Z,10.67
2018-06-23T05:10:20.701Z,10.67
2018-06-23T05:11:20.691Z,10.68
2018-06-23T05:12:20.686Z,10.69
2018-06-23T05:13:20.674Z,10.82
2018-06-23T05:14:20.664Z,10.82
2018-06-23T05:15:20.857Z,10.86
2018-06-23T05:16:20.646Z,10.94
2018-06-23T05:17:20.637Z,11.02
2018-06-23T05:18:20.633Z,11.11
2018-06-23T05:19:20.622Z,11.04
2018-06-23T05:20:20.684Z,11.15
2018-06-23T05:21:20.602Z,11.18
2018-06-23T05:22:20.591Z,11.32
2018-06-23T05:23:20.582Z,11.33
2018-06-23T05:24:20.577Z,11.40
2018-06-23T05:25:20.565Z,11.37
2018-06-23T05:26:20.556Z,11.40
2018-06-23T05:27:20.549Z,11.50
2018-06-23T05:28:20.538Z,11.50
2018-06-23T05:29:20.531Z,11.57
2018-06-23T05:30:20.527Z,11.65
2018-06-23T05:31:20.512Z,11.60
2018-06-23T05:32:20.508Z,11.57
2018-06-23T05:33:20.496Z,11.65
2018-06-23T05:34:20.487Z,11.62
2018-06-23T05:35:20.477Z,11.60
2018-06-23T05:36:20.469Z,11.68
2018-06-23T05:37:20.461Z,11.62
2018-06-23T05:38:20.451Z,11.66
2018-06-23T05:39:20.645Z,11.63
2018-06-23T05:40:20.435Z,11.60
2018-06-23T05:41:20.430Z,11.68
2018-06-23T05:42:20.419Z,11.65
2018-06-23T05:43:20.413Z,11.66
2018-06-23T05:44:20.400Z,11.66
2018-06-23T05:45:20.395Z,11.72
2018-06-23T05:46:20.385Z,11.73
2018-06-23T05:47:20.374Z,11.80
2018-06-23T05:48:20.366Z,11.86
2018-06-23T05:49:20.358Z,11.91
2018-06-23T05:50:20.357Z,12.02
2018-06-23T05:51:20.385Z,12.02
2018-06-23T05:52:20.339Z,12.00
2018-06-23T05:53:20.329Z,12.04
2018-06-23T05:54:20.316Z,12.02
2018-06-23T05:55:20.308Z,12.04
2018-06-23T05:56:20.301Z,12.18
2018-06-23T05:57:20.293Z,12.18
2018-06-23T05:58:20.289Z,12.12
2018-06-23T05:59:20.277Z,12.13
2018-06-23T06:00:20.273Z,12.03
2018-06-23T06:01:20.266Z,12.04
2018-06-23T06:02:20.260Z,12.18
2018-06-23T06:03:20.245Z,12.18
2018-06-23T06:04:20.238Z,12.25
2018-06-23T06:05:20.231Z,12.28
2018-06-23T06:06:20.224Z,12.29
2018-06-23T06:07:20.218Z,12.50
2018-06-23T06:08:20.206Z,12.60
2018-06-23T06:09:20.404Z,12.54
2018-06-23T06:10:20.191Z,12.54
2018-06-23T06:11:20.189Z,12.55
2018-06-23T06:12:20.177Z,12.57
2018-06-23T06:13:20.175Z,12.65
2018-06-23T06:14:20.172Z,12.55
2018-06-23T06:15:20.157Z,12.58
2018-06-23T06:16:20.146Z,12.49
2018-06-23T06:17:20.139Z,12.37
2018-06-23T06:18:20.136Z,12.42
2018-06-23T06:19:20.133Z,12.46
2018-06-23T06:20:20.115Z,12.46
2018-06-23T06:21:20.110Z,12.43
2018-06-23T06:22:20.100Z,12.35
2018-06-23T06:23:20.092Z,12.32
2018-06-23T06:24:20.094Z,12.42
2018-06-23T06:25:20.078Z,12.46
2018-06-23T06:26:20.070Z,12.55
2018-06-23T06:27:20.065Z,12.57
2018-06-23T06:28:20.055Z,12.61
2018-06-23T06:29:20.051Z,12.53
2018-06-23T06:30:20.039Z,12.60
2018-06-23T06:31:20.032Z,12.60
2018-06-23T06:32:20.026Z,12.58
2018-06-23T06:33:20.020Z,12.67
2018-06-23T06:34:20.009Z,12.64
2018-06-23T06:35:20.003Z,12.64
2018-06-23T06:36:19.995Z,12.70
2018-06-23T06:37:19.988Z,12.76
2018-06-23T06:38:19.980Z,12.87
2018-06-23T06:39:19.973Z,12.80
2018-06-23T06:40:19.966Z,12.75
2018-06-23T06:41:19.961Z,12.79
2018-06-23T06:42:19.957Z,12.85
2018-06-23T06:43:19.947Z,12.82
2018-06-23T06:44:19.936Z,12.87
2018-06-23T06:45:19.930Z,12.86
2018-06-23T06:46:19.926Z,12.85
2018-06-23T06:47:19.917Z,12.83
2018-06-23T06:48:19.908Z,12.94
2018-06-23T06:49:19.910Z,13.00
2018-06-23T06:50:19.896Z,13.15
2018-06-23T06:51:19.887Z,13.25
2018-06-23T06:52:19.881Z,13.33
2018-06-23T06:53:19.877Z,13.47
2018-06-23T06:54:19.867Z,13.41
2018-06-23T06:55:19.860Z,13.33
2018-06-23T06:56:19.858Z,13.41
2018-06-23T06:57:19.848Z,13.52
2018-06-23T06:58:19.845Z,13.62
2018-06-23T06:59:19.835Z,13.70
2018-06-23T07:00:19.829Z,13.65
2018-06-23T07:01:19.823Z,13.57
2018-06-23T07:02:19.820Z,13.54
2018-06-23T07:03:19.816Z,13.52
2018-06-23T07:04:19.807Z,13.60
2018-06-23T07:05:19.804Z,13.59
2018-06-23T07:06:19.795Z,13.46
2018-06-23T07:07:19.788Z,13.42
2018-06-23T07:08:19.779Z,13.46
2018-06-23T07:09:19.773Z,13.50
2018-06-23T07:10:19.770Z,13.50
2018-06-23T07:11:19.764Z,13.53
2018-06-23T07:12:19.759Z,13.52
2018-06-23T07:13:19.951Z,13.53
2018-06-23T07:14:19.741Z,13.60
2018-06-23T07:15:19.736Z,13.60
2018-06-23T07:16:19.730Z,13.70
2018-06-23T07:17:19.724Z,13.60
2018-06-23T07:18:19.717Z,13.65
2018-06-23T07:19:19.713Z,13.63
2018-06-23T07:20:19.705Z,13.65
2018-06-23T07:21:19.702Z,13.70
2018-06-23T07:22:19.693Z,13.57
2018-06-23T07:23:19.687Z,13.67
2018-06-23T07:24:19.681Z,13.79
2018-06-23T07:25:19.677Z,13.87
2018-06-23T07:26:19.668Z,13.87
2018-06-23T07:27:19.864Z,13.83
2018-06-23T07:28:19.862Z,13.87
2018-06-23T07:29:19.651Z,13.87
2018-06-23T07:30:19.644Z,13.95
2018-06-23T07:31:19.644Z,13.86
2018-06-23T07:32:19.633Z,14.03
2018-06-23T07:33:19.627Z,13.97
2018-06-23T07:34:19.693Z,14.04
2018-06-23T07:35:19.847Z,14.28
2018-06-23T07:36:19.609Z,14.23
2018-06-23T07:37:19.604Z,14.30
2018-06-23T07:38:19.599Z,14.30
2018-06-23T07:39:19.593Z,14.25
2018-06-23T07:40:19.589Z,14.18
2018-06-23T07:41:19.583Z,14.26
2018-06-23T07:42:19.582Z,14.32
2018-06-23T07:45:19.561Z,14.23
2018-06-23T07:46:19.555Z,14.29
2018-06-23T07:47:19.555Z,14.23
2018-06-23T07:48:19.545Z,14.28
2018-06-23T07:49:19.540Z,14.25
2018-06-23T07:50:19.534Z,14.36
2018-06-23T07:51:19.529Z,14.41
2018-06-23T07:52:19.535Z,14.41
2018-06-23T07:53:19.521Z,14.73
2018-06-23T07:54:19.514Z,14.84
2018-06-23T07:55:19.510Z,15.02
2018-06-23T07:56:19.671Z,15.21
2018-06-23T07:57:19.503Z,15.17
2018-06-23T07:58:19.498Z,15.22
2018-06-23T07:59:19.498Z,15.29
2018-06-23T08:00:19.492Z,15.57
2018-06-23T08:01:19.489Z,15.52
2018-06-23T08:02:19.490Z,15.68
2018-06-23T08:04:19.481Z,15.68
2018-06-23T08:05:19.479Z,15.65
2018-06-23T08:06:19.476Z,15.76
2018-06-23T08:07:19.473Z,15.49
2018-06-23T08:08:19.478Z,15.67
2018-06-23T08:09:19.468Z,15.61
2018-06-23T08:10:19.469Z,15.36
2018-06-23T08:11:19.467Z,15.21
2018-06-23T08:12:19.463Z,15.06
2018-06-23T08:13:19.456Z,15.04
2018-06-23T08:14:19.451Z,15.06
2018-06-23T08:15:19.447Z,14.99
2018-06-23T08:16:19.447Z,14.82
2018-06-23T08:17:19.441Z,14.72
2018-06-23T08:18:19.641Z,14.60
2018-06-23T08:19:19.431Z,14.54
2018-06-23T08:20:19.427Z,14.45
2018-06-23T08:21:19.422Z,14.43
2018-06-23T08:22:19.416Z,14.33
2018-06-23T08:23:19.412Z,14.47
2018-06-23T08:24:19.408Z,14.50
2018-06-23T08:25:19.404Z,14.35
2018-06-23T08:26:19.610Z,14.29
2018-06-23T08:27:19.403Z,14.25
2018-06-23T08:28:19.391Z,14.20
2018-06-23T08:29:19.380Z,14.18
2018-06-23T08:30:19.374Z,14.07
2018-06-23T08:31:19.373Z,14.11
2018-06-23T08:32:19.362Z,14.00
2018-06-23T08:33:19.357Z,14.08
2018-06-23T08:34:19.351Z,14.14
2018-06-23T08:35:19.343Z,14.17
2018-06-23T08:36:19.338Z,14.17
2018-06-23T08:37:19.332Z,14.23
2018-06-23T08:38:19.325Z,14.30
2018-06-23T08:39:19.327Z,14.35
2018-06-23T08:40:19.320Z,14.54
2018-06-23T08:41:19.309Z,14.69
2018-06-23T08:42:19.302Z,14.70
2018-06-23T08:43:19.298Z,14.70
2018-06-23T08:44:19.294Z,14.70
2018-06-23T08:45:19.288Z,14.81
2018-06-23T08:46:19.278Z,14.96
2018-06-23T08:47:19.275Z,15.03
2018-06-23T08:48:19.267Z,15.10
2018-06-23T08:49:19.264Z,15.19
2018-06-23T08:50:19.257Z,15.37
2018-06-23T08:51:19.252Z,15.55
2018-06-23T08:52:19.248Z,15.64
2018-06-23T08:53:19.251Z,15.62
2018-06-23T08:54:19.244Z,15.88
2018-06-23T08:55:19.240Z,16.00
2018-06-23T08:56:19.435Z,15.97
2018-06-23T08:57:19.230Z,16.16
2018-06-23T08:58:19.226Z,16.46
2018-06-23T08:59:19.224Z,16.75
2018-06-23T09:00:19.224Z,17.12
2018-06-23T09:01:19.232Z,17.45
2018-06-23T09:02:19.423Z,17.60
2018-06-23T09:03:19.221Z,17.63
2018-06-23T09:04:19.429Z,17.29
2018-06-23T09:05:19.251Z,17.24
2018-06-23T09:06:19.221Z,17.11
2018-06-23T09:07:19.224Z,17.27
2018-06-23T09:08:19.233Z,17.74
2018-06-23T09:09:19.226Z,17.79
2018-06-23T09:10:19.229Z,17.97
2018-06-23T09:11:19.228Z,17.98
2018-06-23T09:12:19.231Z,18.40
2018-06-23T09:13:19.234Z,18.43
2018-06-23T09:14:19.441Z,18.13
2018-06-23T09:15:19.236Z,17.95
2018-06-23T09:16:19.642Z,17.63
2018-06-23T09:17:19.242Z,17.29
2018-06-23T09:18:19.240Z,17.29
2018-06-23T09:19:19.239Z,17.12
2018-06-23T09:20:19.241Z,16.93
2018-06-23T09:21:19.244Z,17.01
2018-06-23T09:22:19.240Z,17.34
2018-06-23T09:23:19.239Z,17.79
2018-06-23T09:24:19.240Z,18.22
2018-06-23T09:25:19.243Z,18.55
2018-06-23T09:26:19.244Z,18.80
2018-06-23T09:27:19.248Z,18.84
2018-06-23T09:28:19.251Z,18.56
2018-06-23T09:29:19.257Z,18.29
2018-06-23T09:30:19.459Z,18.11
2018-06-23T09:31:19.266Z,18.13
2018-06-23T09:32:19.263Z,18.28
2018-06-23T09:33:19.267Z,18.45
2018-06-23T09:34:19.273Z,18.68
2018-06-23T09:35:19.271Z,18.84
2018-06-23T09:36:19.276Z,18.84
2018-06-23T09:37:19.277Z,19.11
2018-06-23T09:38:19.279Z,19.16
2018-06-23T09:39:19.285Z,19.16
2018-06-23T09:40:19.285Z,18.96
2018-06-23T09:41:19.287Z,18.78
2018-06-23T09:42:19.289Z,18.73
2018-06-23T09:43:19.291Z,18.58
2018-06-23T09:44:19.296Z,18.40
2018-06-23T09:45:19.502Z,18.49
2018-06-23T09:46:19.297Z,18.56
2018-06-23T09:47:19.300Z,18.84
2018-06-23T09:48:19.304Z,18.99
2018-06-23T09:49:19.307Z,19.31
2018-06-23T09:50:19.308Z,19.40
2018-06-23T09:51:19.318Z,18.98
2018-06-23T09:52:19.316Z,18.74
2018-06-23T09:53:19.319Z,18.59
2018-06-23T09:54:19.321Z,18.38
2018-06-23T09:55:19.330Z,18.08
2018-06-23T09:56:19.326Z,17.86
2018-06-23T09:57:19.331Z,17.71
2018-06-23T09:58:19.335Z,17.72
2018-06-23T09:59:19.327Z,17.60
2018-06-23T10:00:19.329Z,17.70
2018-06-23T10:01:19.329Z,17.83
2018-06-23T10:02:19.328Z,17.98
2018-06-23T10:03:19.377Z,18.15
2018-06-23T10:04:19.330Z,18.22
2018-06-23T10:05:19.334Z,18.26
2018-06-23T10:06:19.329Z,17.98
2018-06-23T10:07:19.364Z,17.87
2018-06-23T10:08:19.335Z,17.95
2018-06-23T10:09:19.336Z,17.98
2018-06-23T10:10:19.328Z,18.05
2018-06-23T10:11:19.333Z,18.01
2018-06-23T10:12:19.328Z,18.05
2018-06-23T10:13:19.329Z,17.98
2018-06-23T10:15:19.361Z,18.04
2018-06-23T10:16:19.327Z,17.95
2018-06-23T10:17:19.329Z,17.94
2018-06-23T10:18:19.324Z,17.82
2018-06-23T10:19:19.324Z,17.71
2018-06-23T10:20:19.323Z,17.74
2018-06-23T10:21:19.322Z,17.65
2018-06-23T10:22:19.324Z,17.70
2018-06-23T10:23:19.318Z,17.80
2018-06-23T10:24:19.520Z,17.82
2018-06-23T10:25:19.321Z,17.95
2018-06-23T10:26:19.319Z,18.04
2018-06-23T10:27:19.376Z,17.97
2018-06-23T10:28:19.311Z,18.08
2018-06-23T10:29:19.313Z,18.08
2018-06-23T10:30:19.508Z,18.03
2018-06-23T10:31:19.309Z,17.82
2018-06-23T10:32:19.307Z,17.54
2018-06-23T10:33:19.304Z,17.38
2018-06-23T10:34:19.303Z,17.16
2018-06-23T10:35:19.497Z,17.19
2018-06-23T10:36:19.293Z,17.11
2018-06-23T10:37:19.290Z,17.14
2018-06-23T10:38:19.324Z,17.09
2018-06-23T10:39:19.286Z,17.15
2018-06-23T10:40:19.280Z,17.19
2018-06-23T10:41:19.277Z,17.36
2018-06-23T10:42:19.276Z,17.38
2018-06-23T10:43:19.275Z,17.46
2018-06-23T10:44:19.267Z,17.39
2018-06-23T10:45:19.265Z,17.57
2018-06-23T10:46:19.323Z,17.59
2018-06-23T10:47:19.262Z,17.56
2018-06-23T10:48:19.258Z,17.51
2018-06-23T10:49:19.254Z,17.46
2018-06-23T10:50:19.250Z,17.60
2018-06-23T10:51:19.252Z,17.60
2018-06-23T10:52:19.247Z,17.67
2018-06-23T10:53:19.245Z,17.44
2018-06-23T10:54:19.237Z,17.39
2018-06-23T10:55:19.234Z,17.38
2018-06-23T10:56:19.231Z,17.44
2018-06-23T10:57:19.228Z,17.24
2018-06-23T10:58:19.230Z,17.19
2018-06-23T10:59:19.227Z,17.20
2018-06-23T11:00:19.217Z,17.19
2018-06-23T11:01:19.214Z,17.11
2018-06-23T11:02:19.212Z,17.12
2018-06-23T11:03:19.408Z,17.19
2018-06-23T11:04:19.202Z,17.14
2018-06-23T11:05:19.202Z,17.12
2018-06-23T11:06:19.194Z,17.06
2018-06-23T11:07:19.190Z,17.02
2018-06-23T11:08:19.187Z,17.06
2018-06-23T11:09:19.184Z,17.15
2018-06-23T11:10:19.380Z,17.22
2018-06-23T11:11:19.174Z,17.24
2018-06-23T11:12:19.171Z,17.16
2018-06-23T11:13:19.170Z,17.23
2018-06-23T11:14:19.170Z,17.22
2018-06-23T11:15:19.158Z,17.23
2018-06-23T11:16:19.159Z,17.20
2018-06-23T11:17:19.155Z,17.08
2018-06-23T11:18:19.146Z,17.08
2018-06-23T11:19:19.142Z,17.02
2018-06-23T11:20:19.140Z,16.93
2018-06-23T11:21:19.138Z,16.97
2018-06-23T11:22:19.131Z,16.84
2018-06-23T11:23:19.125Z,16.75
2018-06-23T11:24:19.180Z,16.76
2018-06-23T11:25:19.119Z,16.74
2018-06-23T11:26:19.122Z,16.76
2018-06-23T11:27:19.110Z,16.71
2018-06-23T11:28:19.106Z,16.68
2018-06-23T11:29:19.100Z,16.64
2018-06-23T11:30:19.095Z,16.66
2018-06-23T11:31:19.090Z,16.66
2018-06-23T11:32:19.096Z,16.66
2018-06-23T11:33:19.088Z,16.61
2018-06-23T11:34:19.076Z,16.68
2018-06-23T11:35:19.072Z,16.75
2018-06-23T11:36:19.068Z,16.84
2018-06-23T11:37:19.063Z,16.79
2018-06-23T11:38:19.061Z,16.61
2018-06-23T11:39:19.055Z,16.61
2018-06-23T11:40:19.049Z,16.58
2018-06-23T11:41:19.071Z,16.50
2018-06-23T11:42:19.039Z,16.50
2018-06-23T11:43:19.034Z,16.61
2018-06-23T11:44:19.034Z,16.65
2018-06-23T11:45:19.025Z,16.69
2018-06-23T11:46:19.022Z,16.58
2018-06-23T11:47:19.027Z,16.74
2018-06-23T11:48:19.010Z,16.87
2018-06-23T11:49:19.008Z,16.90
2018-06-23T11:50:19.000Z,16.93
2018-06-23T11:51:19.003Z,17.11
2018-06-23T11:52:19.288Z,17.24
2018-06-23T11:53:18.987Z,17.27
2018-06-23T11:54:18.984Z,17.33
2018-06-23T11:55:18.978Z,17.30
2018-06-23T11:56:18.975Z,17.31
2018-06-23T11:57:18.970Z,17.31
2018-06-23T11:58:18.965Z,17.29
2018-06-23T11:59:18.960Z,17.16
2018-06-23T12:00:18.959Z,17.14
2018-06-23T12:01:18.952Z,16.96
2018-06-23T12:02:18.947Z,16.93
2018-06-23T12:03:18.944Z,17.05
2018-06-23T12:04:18.939Z,17.04
2018-06-23T12:05:18.942Z,16.79
2018-06-23T12:06:18.929Z,16.75
2018-06-23T12:07:18.924Z,16.79
2018-06-23T12:08:18.920Z,16.72
2018-06-23T12:09:18.915Z,16.65
2018-06-23T12:10:18.914Z,16.71
2018-06-23T12:11:18.951Z,16.71
2018-06-23T12:12:18.906Z,16.78
2018-06-23T12:13:18.897Z,16.68
2018-06-23T12:14:18.898Z,16.64
2018-06-23T12:15:18.886Z,16.69
2018-06-23T12:16:18.881Z,16.64
2018-06-23T12:17:18.877Z,16.71
2018-06-23T12:18:18.877Z,16.89
2018-06-23T12:19:18.867Z,17.02
2018-06-23T12:20:18.863Z,17.15
2018-06-23T12:21:18.860Z,17.36
2018-06-23T12:22:18.853Z,17.44
2018-06-23T12:23:18.849Z,17.60
2018-06-23T12:24:18.848Z,17.71
2018-06-23T12:25:18.885Z,17.63
2018-06-23T12:26:19.039Z,17.44
2018-06-23T12:27:18.837Z,17.24
2018-06-23T12:28:18.834Z,17.31
2018-06-23T12:29:18.837Z,17.24
2018-06-23T12:30:18.846Z,17.22
2018-06-23T12:31:18.819Z,17.24
2018-06-23T12:32:18.817Z,17.27
2018-06-23T12:33:18.809Z,17.31
2018-06-23T12:34:18.809Z,17.27
2018-06-23T12:35:18.800Z,17.26
2018-06-23T12:36:18.797Z,17.31
2018-06-23T12:37:18.792Z,17.31
2018-06-23T12:38:18.787Z,17.15
2018-06-23T12:39:18.782Z,17.09
2018-06-23T12:40:18.778Z,17.02
2018-06-23T12:41:18.774Z,16.97
2018-06-23T12:42:18.769Z,16.91
2018-06-23T12:43:18.971Z,16.81
2018-06-23T12:44:18.764Z,16.96
2018-06-23T12:45:18.756Z,16.97
2018-06-23T12:46:18.753Z,16.87
2018-06-23T12:47:18.748Z,16.94
2018-06-23T12:48:18.747Z,16.91
2018-06-23T12:49:18.738Z,16.97
2018-06-23T12:50:18.738Z,16.93
2018-06-23T12:51:18.732Z,17.04
2018-06-23T12:52:18.926Z,17.11
2018-06-23T12:53:18.720Z,17.26
2018-06-23T12:54:18.718Z,17.29
2018-06-23T12:55:18.715Z,17.36
2018-06-23T12:56:18.707Z,17.42
2018-06-23T12:57:18.706Z,17.49
2018-06-23T12:58:18.699Z,17.54
2018-06-23T12:59:18.702Z,17.60
2018-06-23T13:00:18.690Z,17.57
2018-06-23T13:01:18.687Z,17.59
2018-06-23T13:02:18.685Z,17.67
2018-06-23T13:03:18.680Z,17.74
2018-06-23T13:04:18.675Z,17.68
2018-06-23T13:05:18.681Z,17.54